sensor_id;sensor_type;location;lat;lon;timestamp;pressure;altitude;pressure_sealevel;temperature;humidity
70314;BME280;57725;47.526;18.986;2022-12-29T00:02:12;100472.50;;;4.97;93.94
70314;BME280;57725;47.526;18.986;2022-12-29T00:04:38;100474.22;;;4.97;94.42
70314;BME280;57725;47.526;18.986;2022-12-29T00:07:04;100475.94;;;4.96;94.38
70314;BME280;57725;47.526;18.986;2022-12-29T00:09:30;100473.41;;;4.95;94.48
70314;BME280;57725;47.526;18.986;2022-12-29T00:11:55;100469.03;;;4.97;94.30
70314;BME280;57725;47.526;18.986;2022-12-29T00:14:27;100456.13;;;4.95;94.21
70314;BME280;57725;47.526;18.986;2022-12-29T00:17:11;100462.16;;;4.96;94.94
70314;BME280;57725;47.526;18.986;2022-12-29T00:19:37;100450.94;;;4.95;93.89
70314;BME280;57725;47.526;18.986;2022-12-29T00:22:21;100452.66;;;4.95;94.31
70314;BME280;57725;47.526;18.986;2022-12-29T00:25:08;100447.50;;;4.92;94.58
70314;BME280;57725;47.526;18.986;2022-12-29T00:27:34;100453.53;;;4.94;94.34
70314;BME280;57725;47.526;18.986;2022-12-29T00:30:20;100456.13;;;4.94;94.48
70314;BME280;57725;47.526;18.986;2022-12-29T00:33:10;100467.34;;;4.94;94.23
70314;BME280;57725;47.526;18.986;2022-12-29T00:36:00;100456.13;;;4.94;93.85
70314;BME280;57725;47.526;18.986;2022-12-29T00:38:27;100463.06;;;4.92;94.35
70314;BME280;57725;47.526;18.986;2022-12-29T00:41:11;100463.06;;;4.93;94.28
70314;BME280;57725;47.526;18.986;2022-12-29T00:43:55;100457.88;;;4.92;94.28
70314;BME280;57725;47.526;18.986;2022-12-29T00:46:30;100457.03;;;4.91;93.98
70314;BME280;57725;47.526;18.986;2022-12-29T00:48:56;100457.88;;;4.92;93.90
70314;BME280;57725;47.526;18.986;2022-12-29T00:51:39;100457.88;;;4.92;94.33
70314;BME280;57725;47.526;18.986;2022-12-29T00:54:05;100453.59;;;4.88;93.95
70314;BME280;57725;47.526;18.986;2022-12-29T00:56:30;100455.31;;;4.89;94.24
70314;BME280;57725;47.526;18.986;2022-12-29T00:59:00;100451.00;;;4.88;94.32
70314;BME280;57725;47.526;18.986;2022-12-29T01:01:25;100460.47;;;4.90;94.04
70314;BME280;57725;47.526;18.986;2022-12-29T01:03:51;100450.19;;;4.84;94.49
70314;BME280;57725;47.526;18.986;2022-12-29T01:06:23;100458.75;;;4.89;94.32
70314;BME280;57725;47.526;18.986;2022-12-29T01:08:48;100452.72;;;4.87;93.38
70314;BME280;57725;47.526;18.986;2022-12-29T01:11:38;100441.50;;;4.87;93.93
70314;BME280;57725;47.526;18.986;2022-12-29T01:14:03;100451.00;;;4.88;94.04
70314;BME280;57725;47.526;18.986;2022-12-29T01:16:29;100448.47;;;4.83;94.68
70314;BME280;57725;47.526;18.986;2022-12-29T01:18:57;100458.78;;;4.86;94.14
70314;BME280;57725;47.526;18.986;2022-12-29T01:21:23;100457.03;;;4.88;94.27
70314;BME280;57725;47.526;18.986;2022-12-29T01:23:49;100459.66;;;4.87;94.13
70314;BME280;57725;47.526;18.986;2022-12-29T01:26:15;100454.44;;;4.88;94.59
70314;BME280;57725;47.526;18.986;2022-12-29T01:28:41;100456.19;;;4.86;93.91
70314;BME280;57725;47.526;18.986;2022-12-29T01:31:11;100451.88;;;4.87;94.23
70314;BME280;57725;47.526;18.986;2022-12-29T01:33:37;100460.50;;;4.87;94.12
70314;BME280;57725;47.526;18.986;2022-12-29T01:36:08;100456.22;;;4.85;94.16
70314;BME280;57725;47.526;18.986;2022-12-29T01:38:36;100463.97;;;4.86;94.08
70314;BME280;57725;47.526;18.986;2022-12-29T01:41:02;100451.06;;;4.83;93.55
70314;BME280;57725;47.526;18.986;2022-12-29T01:43:48;100457.06;;;4.85;94.05
70314;BME280;57725;47.526;18.986;2022-12-29T01:46:40;100451.88;;;4.85;94.14
70314;BME280;57725;47.526;18.986;2022-12-29T01:51:58;100451.03;;;4.85;93.76
70314;BME280;57725;47.526;18.986;2022-12-29T01:54:32;100448.47;;;4.83;93.99
70314;BME280;57725;47.526;18.986;2022-12-29T01:57:01;100445.03;;;4.84;94.07
70314;BME280;57725;47.526;18.986;2022-12-29T01:59:31;100440.72;;;4.83;94.07
70314;BME280;57725;47.526;18.986;2022-12-29T02:01:58;100434.69;;;4.80;93.86
70314;BME280;57725;47.526;18.986;2022-12-29T02:04:32;100437.25;;;4.83;94.01
70314;BME280;57725;47.526;18.986;2022-12-29T02:07:03;100436.41;;;4.82;94.09
70314;BME280;57725;47.526;18.986;2022-12-29T02:09:32;100424.38;;;4.75;94.24
70314;BME280;57725;47.526;18.986;2022-12-29T02:11:58;100430.34;;;4.82;93.96
70314;BME280;57725;47.526;18.986;2022-12-29T02:14:24;100427.78;;;4.80;93.88
70314;BME280;57725;47.526;18.986;2022-12-29T02:34:10;100417.44;;;4.79;94.39
70314;BME280;57725;47.526;18.986;2022-12-29T02:36:55;100423.47;;;4.78;93.70
70314;BME280;57725;47.526;18.986;2022-12-29T02:39:43;100412.25;;;4.77;94.26
70314;BME280;57725;47.526;18.986;2022-12-29T02:45:07;100401.91;;;4.76;93.98
70314;BME280;57725;47.526;18.986;2022-12-29T02:47:54;100415.72;;;4.76;94.21
70314;BME280;57725;47.526;18.986;2022-12-29T02:53:08;100406.22;;;4.75;94.24
70314;BME280;57725;47.526;18.986;2022-12-29T02:55:35;100407.94;;;4.76;93.50
70314;BME280;57725;47.526;18.986;2022-12-29T02:58:17;100410.56;;;4.74;93.43
70314;BME280;57725;47.526;18.986;2022-12-29T03:09:18;100405.44;;;4.71;93.85
70314;BME280;57725;47.526;18.986;2022-12-29T03:11:57;100409.75;;;4.72;93.90
70314;BME280;57725;47.526;18.986;2022-12-29T03:18:14;100407.16;;;4.72;93.46
70314;BME280;57725;47.526;18.986;2022-12-29T03:21:03;100397.63;;;4.73;94.15
70314;BME280;57725;47.526;18.986;2022-12-29T03:23:31;100401.09;;;4.72;93.76
70314;BME280;57725;47.526;18.986;2022-12-29T03:26:02;100389.03;;;4.71;93.70
70314;BME280;57725;47.526;18.986;2022-12-29T03:28:33;100388.16;;;4.70;94.38
70314;BME280;57725;47.526;18.986;2022-12-29T03:31:03;100381.28;;;4.69;94.14
70314;BME280;57725;47.526;18.986;2022-12-29T03:33:30;100383.00;;;4.69;93.67
70314;BME280;57725;47.526;18.986;2022-12-29T03:36:00;100383.00;;;4.67;93.70
70314;BME280;57725;47.526;18.986;2022-12-29T03:39:02;100378.69;;;4.69;94.21
70314;BME280;57725;47.526;18.986;2022-12-29T03:41:31;100379.56;;;4.68;94.12
70314;BME280;57725;47.526;18.986;2022-12-29T03:43:57;100384.72;;;4.70;94.08
70314;BME280;57725;47.526;18.986;2022-12-29T03:46:22;100379.56;;;4.67;93.79
70314;BME280;57725;47.526;18.986;2022-12-29T03:48:48;100376.97;;;4.68;93.53
70314;BME280;57725;47.526;18.986;2022-12-29T03:51:13;100385.59;;;4.69;93.92
70314;BME280;57725;47.526;18.986;2022-12-29T03:53:38;100389.91;;;4.67;93.70
70314;BME280;57725;47.526;18.986;2022-12-29T03:56:04;100385.63;;;4.66;94.10
70314;BME280;57725;47.526;18.986;2022-12-29T03:58:29;100382.16;;;4.67;93.60
70314;BME280;57725;47.526;18.986;2022-12-29T04:00:55;100383.88;;;4.66;94.10
70314;BME280;57725;47.526;18.986;2022-12-29T04:03:20;100394.25;;;4.66;93.91
70314;BME280;57725;47.526;18.986;2022-12-29T04:05:46;100389.06;;;4.65;93.76
70314;BME280;57725;47.526;18.986;2022-12-29T04:08:11;100386.47;;;4.66;93.61
70314;BME280;57725;47.526;18.986;2022-12-29T04:10:36;100385.63;;;4.66;93.92
70314;BME280;57725;47.526;18.986;2022-12-29T04:13:02;100389.94;;;4.65;93.99
70314;BME280;57725;47.526;18.986;2022-12-29T04:15:27;100387.34;;;4.65;93.63
70314;BME280;57725;47.526;18.986;2022-12-29T04:17:53;100381.31;;;4.65;94.34
70314;BME280;57725;47.526;18.986;2022-12-29T04:20:18;100376.16;;;4.62;93.63
70314;BME280;57725;47.526;18.986;2022-12-29T04:23:04;100378.72;;;4.63;94.04
70314;BME280;57725;47.526;18.986;2022-12-29T04:25:33;100383.06;;;4.63;93.42
70314;BME280;57725;47.526;18.986;2022-12-29T04:27:58;100386.50;;;4.62;93.68
70314;BME280;57725;47.526;18.986;2022-12-29T04:30:24;100385.63;;;4.63;93.71
70314;BME280;57725;47.526;18.986;2022-12-29T04:32:50;100386.50;;;4.62;93.63
70314;BME280;57725;47.526;18.986;2022-12-29T04:35:15;100386.56;;;4.60;93.74
70314;BME280;57725;47.526;18.986;2022-12-29T04:37:41;100393.44;;;4.61;94.19
70314;BME280;57725;47.526;18.986;2022-12-29T04:40:07;100384.81;;;4.61;94.22
70314;BME280;57725;47.526;18.986;2022-12-29T04:42:32;100380.50;;;4.61;94.16
70314;BME280;57725;47.526;18.986;2022-12-29T04:44:57;100377.06;;;4.59;93.38
70314;BME280;57725;47.526;18.986;2022-12-29T04:47:23;100378.78;;;4.60;93.67
70314;BME280;57725;47.526;18.986;2022-12-29T04:49:48;100379.66;;;4.59;93.66
70314;BME280;57725;47.526;18.986;2022-12-29T04:52:14;100372.75;;;4.58;93.55
70314;BME280;57725;47.526;18.986;2022-12-29T04:54:45;100378.78;;;4.59;93.59
70314;BME280;57725;47.526;18.986;2022-12-29T04:57:11;100386.56;;;4.59;94.26
70314;BME280;57725;47.526;18.986;2022-12-29T04:59:36;100383.13;;;4.57;93.70
70314;BME280;57725;47.526;18.986;2022-12-29T05:02:02;100389.16;;;4.59;94.21
70314;BME280;57725;47.526;18.986;2022-12-29T05:04:27;100385.72;;;4.57;93.48
70314;BME280;57725;47.526;18.986;2022-12-29T05:06:52;100390.03;;;4.58;94.07
70314;BME280;57725;47.526;18.986;2022-12-29T05:09:18;100387.44;;;4.56;93.58
70314;BME280;57725;47.526;18.986;2022-12-29T05:11:45;100379.69;;;4.55;93.60
70314;BME280;57725;47.526;18.986;2022-12-29T05:14:11;100383.13;;;4.57;94.01
70314;BME280;57725;47.526;18.986;2022-12-29T05:16:36;100384.00;;;4.56;93.67
70314;BME280;57725;47.526;18.986;2022-12-29T05:19:01;100377.09;;;4.56;93.28
70314;BME280;57725;47.526;18.986;2022-12-29T05:21:27;100384.00;;;4.56;94.17
70314;BME280;57725;47.526;18.986;2022-12-29T05:23:52;100378.84;;;4.54;93.92
70314;BME280;57725;47.526;18.986;2022-12-29T05:26:18;100372.78;;;4.55;93.26
70314;BME280;57725;47.526;18.986;2022-12-29T05:28:43;100374.53;;;4.53;93.57
70314;BME280;57725;47.526;18.986;2022-12-29T05:31:08;100384.00;;;4.54;94.11
70314;BME280;57725;47.526;18.986;2022-12-29T05:33:34;100383.16;;;4.54;93.35
70314;BME280;57725;47.526;18.986;2022-12-29T05:36:07;100376.25;;;4.53;93.84
70314;BME280;57725;47.526;18.986;2022-12-29T05:38:33;100382.28;;;4.53;93.68
70314;BME280;57725;47.526;18.986;2022-12-29T05:40:59;100378.00;;;4.51;93.35
70314;BME280;57725;47.526;18.986;2022-12-29T05:43:24;100373.66;;;4.53;94.12
70314;BME280;57725;47.526;18.986;2022-12-29T05:45:49;100378.84;;;4.53;94.07
70314;BME280;57725;47.526;18.986;2022-12-29T05:48:15;100365.03;;;4.51;93.72
70314;BME280;57725;47.526;18.986;2022-12-29T05:50:41;100362.44;;;4.52;93.28
70314;BME280;57725;47.526;18.986;2022-12-29T05:53:06;100356.47;;;4.49;93.80
70314;BME280;57725;47.526;18.986;2022-12-29T05:55:31;100354.69;;;4.51;93.59
70314;BME280;57725;47.526;18.986;2022-12-29T05:57:57;100354.72;;;4.49;93.55
70314;BME280;57725;47.526;18.986;2022-12-29T06:00:22;100359.88;;;4.51;93.53
70314;BME280;57725;47.526;18.986;2022-12-29T06:02:48;100358.19;;;4.48;93.55
70314;BME280;57725;47.526;18.986;2022-12-29T06:05:14;100362.50;;;4.49;93.17
70314;BME280;57725;47.526;18.986;2022-12-29T06:07:39;100362.50;;;4.49;93.39
70314;BME280;57725;47.526;18.986;2022-12-29T06:10:05;100362.50;;;4.49;93.63
70314;BME280;57725;47.526;18.986;2022-12-29T06:12:31;100365.97;;;4.48;93.50
70314;BME280;57725;47.526;18.986;2022-12-29T06:14:56;100362.50;;;4.48;93.36
70314;BME280;57725;47.526;18.986;2022-12-29T06:17:22;100366.81;;;4.49;93.65
70314;BME280;57725;47.526;18.986;2022-12-29T06:19:47;100365.97;;;4.47;93.45
70314;BME280;57725;47.526;18.986;2022-12-29T06:22:15;100365.09;;;4.48;93.59
70314;BME280;57725;47.526;18.986;2022-12-29T06:24:40;100369.41;;;4.47;93.49
70314;BME280;57725;47.526;18.986;2022-12-29T06:27:06;100368.56;;;4.47;93.66
70314;BME280;57725;47.526;18.986;2022-12-29T06:29:31;100365.13;;;4.46;93.16
70314;BME280;57725;47.526;18.986;2022-12-29T06:31:57;100368.56;;;4.45;93.56
70314;BME280;57725;47.526;18.986;2022-12-29T06:34:24;100369.44;;;4.46;93.12
70314;BME280;57725;47.526;18.986;2022-12-29T06:36:50;100367.72;;;4.45;93.91
70314;BME280;57725;47.526;18.986;2022-12-29T06:39:16;100368.56;;;4.45;93.45
70314;BME280;57725;47.526;18.986;2022-12-29T06:41:41;100364.28;;;4.43;93.33
70314;BME280;57725;47.526;18.986;2022-12-29T06:44:06;100370.31;;;4.43;93.32
70314;BME280;57725;47.526;18.986;2022-12-29T06:46:32;100369.47;;;4.43;93.75
70314;BME280;57725;47.526;18.986;2022-12-29T06:48:57;100372.91;;;4.45;93.68
70314;BME280;57725;47.526;18.986;2022-12-29T06:51:22;100378.09;;;4.43;93.22
70314;BME280;57725;47.526;18.986;2022-12-29T06:53:48;100374.66;;;4.41;93.50
70314;BME280;57725;47.526;18.986;2022-12-29T06:56:13;100375.50;;;4.42;93.86
70314;BME280;57725;47.526;18.986;2022-12-29T06:58:39;100381.53;;;4.42;93.80
70314;BME280;57725;47.526;18.986;2022-12-29T07:01:04;100380.69;;;4.42;93.46
70314;BME280;57725;47.526;18.986;2022-12-29T07:03:30;100388.47;;;4.40;93.21
70314;BME280;57725;47.526;18.986;2022-12-29T07:05:57;100390.19;;;4.41;93.06
70314;BME280;57725;47.526;18.986;2022-12-29T07:08:23;100386.75;;;4.39;93.13
70314;BME280;57725;47.526;18.986;2022-12-29T07:10:49;100390.19;;;4.40;93.79
70314;BME280;57725;47.526;18.986;2022-12-29T07:13:14;100386.72;;;4.41;93.57
70314;BME280;57725;47.526;18.986;2022-12-29T07:15:39;100387.59;;;4.40;93.57
70314;BME280;57725;47.526;18.986;2022-12-29T07:18:05;100384.19;;;4.38;93.55
70314;BME280;57725;47.526;18.986;2022-12-29T07:20:31;100382.41;;;4.40;93.70
70314;BME280;57725;47.526;18.986;2022-12-29T07:22:56;100382.41;;;4.40;93.58
70314;BME280;57725;47.526;18.986;2022-12-29T07:25:22;100384.16;;;4.39;93.82
70314;BME280;57725;47.526;18.986;2022-12-29T07:27:48;100380.75;;;4.37;93.32
70314;BME280;57725;47.526;18.986;2022-12-29T07:30:14;100401.41;;;4.38;93.98
70314;BME280;57725;47.526;18.986;2022-12-29T07:32:40;100387.66;;;4.36;93.75
70314;BME280;57725;47.526;18.986;2022-12-29T07:35:05;100387.66;;;4.36;93.74
70314;BME280;57725;47.526;18.986;2022-12-29T07:37:31;100391.97;;;4.36;93.59
70314;BME280;57725;47.526;18.986;2022-12-29T07:39:57;100390.22;;;4.38;93.51
70314;BME280;57725;47.526;18.986;2022-12-29T07:42:22;100388.50;;;4.37;93.74
70314;BME280;57725;47.526;18.986;2022-12-29T07:44:50;100386.78;;;4.38;93.03
70314;BME280;57725;47.526;18.986;2022-12-29T07:47:15;100391.97;;;4.36;93.61
70314;BME280;57725;47.526;18.986;2022-12-29T07:49:45;100397.13;;;4.38;93.64
70314;BME280;57725;47.526;18.986;2022-12-29T07:52:10;100400.59;;;4.35;94.04
70314;BME280;57725;47.526;18.986;2022-12-29T07:54:36;100398.88;;;4.34;93.50
70314;BME280;57725;47.526;18.986;2022-12-29T07:57:01;100404.06;;;4.35;93.42
70314;BME280;57725;47.526;18.986;2022-12-29T07:59:27;100404.06;;;4.35;93.57
70314;BME280;57725;47.526;18.986;2022-12-29T08:02:01;100401.47;;;4.34;93.59
70314;BME280;57725;47.526;18.986;2022-12-29T08:04:26;100392.84;;;4.33;93.79
70314;BME280;57725;47.526;18.986;2022-12-29T08:06:51;100399.75;;;4.34;94.07
70314;BME280;57725;47.526;18.986;2022-12-29T08:09:17;100386.03;;;4.26;93.56
70314;BME280;57725;47.526;18.986;2022-12-29T08:11:42;100399.75;;;4.34;93.53
70314;BME280;57725;47.526;18.986;2022-12-29T08:14:08;100396.28;;;4.35;93.98
70314;BME280;57725;47.526;18.986;2022-12-29T08:16:34;100391.13;;;4.34;93.58
70314;BME280;57725;47.526;18.986;2022-12-29T08:19:00;100399.72;;;4.36;93.13
70314;BME280;57725;47.526;18.986;2022-12-29T08:21:27;100390.25;;;4.33;93.67
70314;BME280;57725;47.526;18.986;2022-12-29T08:23:53;100388.53;;;4.32;93.62
70314;BME280;57725;47.526;18.986;2022-12-29T08:26:18;100385.94;;;4.32;93.78
70314;BME280;57725;47.526;18.986;2022-12-29T08:28:43;100389.38;;;4.34;93.85
70314;BME280;57725;47.526;18.986;2022-12-29T08:31:10;100382.47;;;4.35;93.22
70314;BME280;57725;47.526;18.986;2022-12-29T08:33:35;100377.31;;;4.33;93.70
70314;BME280;57725;47.526;18.986;2022-12-29T08:36:03;100375.59;;;4.34;93.43
70314;BME280;57725;47.526;18.986;2022-12-29T08:38:29;100370.41;;;4.32;93.73
70314;BME280;57725;47.526;18.986;2022-12-29T08:40:55;100364.41;;;4.30;93.67
70314;BME280;57725;47.526;18.986;2022-12-29T08:43:20;100368.69;;;4.33;93.71
70314;BME280;57725;47.526;18.986;2022-12-29T08:45:46;100363.50;;;4.33;93.85
70314;BME280;57725;47.526;18.986;2022-12-29T08:48:11;100367.81;;;4.34;93.62
70314;BME280;57725;47.526;18.986;2022-12-29T08:50:36;100373.88;;;4.31;93.88
70314;BME280;57725;47.526;18.986;2022-12-29T08:53:02;100373.00;;;4.32;93.83
70314;BME280;57725;47.526;18.986;2022-12-29T08:55:30;100378.19;;;4.32;93.59
70314;BME280;57725;47.526;18.986;2022-12-29T08:57:55;100368.69;;;4.33;93.84
70314;BME280;57725;47.526;18.986;2022-12-29T09:00:20;100361.78;;;4.32;94.13
70314;BME280;57725;47.526;18.986;2022-12-29T09:02:46;100360.94;;;4.33;94.15
70314;BME280;57725;47.526;18.986;2022-12-29T09:05:12;100364.41;;;4.30;93.70
70314;BME280;57725;47.526;18.986;2022-12-29T09:07:43;100361.78;;;4.32;93.97
70314;BME280;57725;47.526;18.986;2022-12-29T09:10:09;100360.94;;;4.31;94.13
70314;BME280;57725;47.526;18.986;2022-12-29T09:12:34;100352.31;;;4.31;93.40
70314;BME280;57725;47.526;18.986;2022-12-29T09:15:00;100350.59;;;4.30;93.73
70314;BME280;57725;47.526;18.986;2022-12-29T09:17:25;100354.91;;;4.31;93.64
70314;BME280;57725;47.526;18.986;2022-12-29T09:20:26;100348.00;;;4.31;94.16
70314;BME280;57725;47.526;18.986;2022-12-29T09:22:52;100341.09;;;4.30;93.58
70314;BME280;57725;47.526;18.986;2022-12-29T09:25:18;100342.81;;;4.31;93.80
70314;BME280;57725;47.526;18.986;2022-12-29T09:27:43;100330.75;;;4.30;93.91
70314;BME280;57725;47.526;18.986;2022-12-29T09:30:11;100331.59;;;4.31;93.71
70314;BME280;57725;47.526;18.986;2022-12-29T09:32:37;100322.13;;;4.30;94.07
70314;BME280;57725;47.526;18.986;2022-12-29T09:35:03;100327.31;;;4.30;93.30
70314;BME280;57725;47.526;18.986;2022-12-29T09:37:28;100312.72;;;4.24;93.52
70314;BME280;57725;47.526;18.986;2022-12-29T09:39:53;100311.78;;;4.28;93.44
70314;BME280;57725;47.526;18.986;2022-12-29T09:42:24;100316.09;;;4.29;93.94
70314;BME280;57725;47.526;18.986;2022-12-29T09:47:29;100315.22;;;4.29;93.89
70314;BME280;57725;47.526;18.986;2022-12-29T09:50:05;100322.13;;;4.30;94.05
70314;BME280;57725;47.526;18.986;2022-12-29T09:53:09;100318.69;;;4.29;94.08
70314;BME280;57725;47.526;18.986;2022-12-29T09:55:42;100331.63;;;4.29;93.78
70314;BME280;57725;47.526;18.986;2022-12-29T09:58:17;100318.69;;;4.29;93.42
70314;BME280;57725;47.526;18.986;2022-12-29T10:00:52;100317.00;;;4.25;93.69
70314;BME280;57725;47.526;18.986;2022-12-29T10:03:20;100316.09;;;4.29;93.88
70314;BME280;57725;47.526;18.986;2022-12-29T10:08:37;100305.72;;;4.31;94.13
70314;BME280;57725;47.526;18.986;2022-12-29T10:13:54;100297.09;;;4.30;93.76
70314;BME280;57725;47.526;18.986;2022-12-29T10:24:59;100291.06;;;4.30;93.41
70314;BME280;57725;47.526;18.986;2022-12-29T10:27:31;100287.63;;;4.29;93.80
70314;BME280;57725;47.526;18.986;2022-12-29T10:29:59;100288.50;;;4.28;94.02
70314;BME280;57725;47.526;18.986;2022-12-29T10:32:36;100290.19;;;4.29;93.80
70314;BME280;57725;47.526;18.986;2022-12-29T10:35:25;100291.06;;;4.28;94.01
70314;BME280;57725;47.526;18.986;2022-12-29T10:37:59;100279.84;;;4.29;93.50
70314;BME280;57725;47.526;18.986;2022-12-29T10:40:36;100281.59;;;4.27;93.62
70314;BME280;57725;47.526;18.986;2022-12-29T10:43:25;100287.63;;;4.29;93.67
70314;BME280;57725;47.526;18.986;2022-12-29T10:45:53;100274.69;;;4.28;93.53
70314;BME280;57725;47.526;18.986;2022-12-29T10:48:27;100272.09;;;4.29;94.21
70314;BME280;57725;47.526;18.986;2022-12-29T10:50:56;100273.81;;;4.29;94.20
70314;BME280;57725;47.526;18.986;2022-12-29T10:53:26;100272.09;;;4.29;93.50
70314;BME280;57725;47.526;18.986;2022-12-29T10:55:56;100268.63;;;4.29;93.60
70314;BME280;57725;47.526;18.986;2022-12-29T10:58:22;100273.81;;;4.30;94.10
70314;BME280;57725;47.526;18.986;2022-12-29T11:00:51;100266.91;;;4.29;93.61
70314;BME280;57725;47.526;18.986;2022-12-29T11:03:45;100263.47;;;4.29;93.80
70314;BME280;57725;47.526;18.986;2022-12-29T11:06:24;100261.72;;;4.29;93.53
70314;BME280;57725;47.526;18.986;2022-12-29T11:08:57;100258.31;;;4.27;93.64
70314;BME280;57725;47.526;18.986;2022-12-29T11:11:34;100261.72;;;4.29;93.47
70314;BME280;57725;47.526;18.986;2022-12-29T11:16:39;100259.16;;;4.29;94.44
70314;BME280;57725;47.526;18.986;2022-12-29T11:19:23;100247.94;;;4.27;94.23
70314;BME280;57725;47.526;18.986;2022-12-29T11:21:49;100249.69;;;4.27;93.45
70314;BME280;57725;47.526;18.986;2022-12-29T11:24:43;100253.09;;;4.29;94.14
70314;BME280;57725;47.526;18.986;2022-12-29T11:27:15;100245.41;;;4.26;93.86
70314;BME280;57725;47.526;18.986;2022-12-29T11:29:42;100251.38;;;4.29;93.98
70314;BME280;57725;47.526;18.986;2022-12-29T11:32:28;100236.72;;;4.28;93.62
70314;BME280;57725;47.526;18.986;2022-12-29T11:34:57;100236.78;;;4.25;93.60
70314;BME280;57725;47.526;18.986;2022-12-29T11:37:39;100233.25;;;4.29;93.77
70314;BME280;57725;47.526;18.986;2022-12-29T11:40:15;100227.25;;;4.27;93.53
70314;BME280;57725;47.526;18.986;2022-12-29T11:42:53;100229.81;;;4.29;93.93
70314;BME280;57725;47.526;18.986;2022-12-29T11:45:24;100222.06;;;4.29;93.72
70314;BME280;57725;47.526;18.986;2022-12-29T11:47:54;100226.38;;;4.28;93.95
70314;BME280;57725;47.526;18.986;2022-12-29T11:50:31;100231.53;;;4.28;94.03
70314;BME280;57725;47.526;18.986;2022-12-29T11:55:28;100235.84;;;4.29;94.03
70314;BME280;57725;47.526;18.986;2022-12-29T11:57:56;100231.56;;;4.27;93.87
70314;BME280;57725;47.526;18.986;2022-12-29T12:00:24;100238.44;;;4.29;94.23
70314;BME280;57725;47.526;18.986;2022-12-29T12:03:02;100232.41;;;4.29;93.81
70314;BME280;57725;47.526;18.986;2022-12-29T12:08:39;100234.13;;;4.28;93.97
70314;BME280;57725;47.526;18.986;2022-12-29T12:11:12;100230.66;;;4.29;94.33
70314;BME280;57725;47.526;18.986;2022-12-29T12:13:53;100238.44;;;4.29;93.80
70314;BME280;57725;47.526;18.986;2022-12-29T12:16:25;100230.66;;;4.29;93.93
70314;BME280;57725;47.526;18.986;2022-12-29T12:19:01;100225.50;;;4.29;94.34
70314;BME280;57725;47.526;18.986;2022-12-29T12:21:38;100210.84;;;4.28;94.14
70314;BME280;57725;47.526;18.986;2022-12-29T12:24:35;100202.19;;;4.29;94.28
70314;BME280;57725;47.526;18.986;2022-12-29T12:27:13;100191.00;;;4.29;94.23
70314;BME280;57725;47.526;18.986;2022-12-29T12:32:39;100188.41;;;4.29;93.89
70314;BME280;57725;47.526;18.986;2022-12-29T12:35:03;100192.72;;;4.30;93.42
70314;BME280;57725;47.526;18.986;2022-12-29T12:51:18;100177.19;;;4.28;94.08
70314;BME280;57725;47.526;18.986;2022-12-29T13:05:04;100180.63;;;4.29;93.91
70314;BME280;57725;47.526;18.986;2022-12-29T13:11:02;100184.09;;;4.29;93.79
70314;BME280;57725;47.526;18.986;2022-12-29T13:24:35;100189.25;;;4.29;94.13
70314;BME280;57725;47.526;18.986;2022-12-29T13:27:39;100191.84;;;4.29;94.17
70314;BME280;57725;47.526;18.986;2022-12-29T13:30:20;100193.59;;;4.27;94.03
70314;BME280;57725;47.526;18.986;2022-12-29T13:33:23;100199.63;;;4.29;93.90
70314;BME280;57725;47.526;18.986;2022-12-29T13:38:32;100197.88;;;4.30;94.09
70314;BME280;57725;47.526;18.986;2022-12-29T13:41:04;100201.34;;;4.27;94.39
70314;BME280;57725;47.526;18.986;2022-12-29T13:43:34;100197.88;;;4.30;94.05
70314;BME280;57725;47.526;18.986;2022-12-29T13:46:12;100190.16;;;4.27;93.84
70314;BME280;57725;47.526;18.986;2022-12-29T13:51:15;100196.16;;;4.29;94.20
70314;BME280;57725;47.526;18.986;2022-12-29T14:01:46;100205.66;;;4.28;93.66
70314;BME280;57725;47.526;18.986;2022-12-29T14:04:21;100214.28;;;4.29;93.91
70314;BME280;57725;47.526;18.986;2022-12-29T14:06:56;100204.00;;;4.24;93.81
70314;BME280;57725;47.526;18.986;2022-12-29T14:11:58;100209.13;;;4.27;93.90
70314;BME280;57725;47.526;18.986;2022-12-29T14:14:27;100208.25;;;4.30;93.51
70314;BME280;57725;47.526;18.986;2022-12-29T14:16:53;100210.81;;;4.30;94.18
70314;BME280;57725;47.526;18.986;2022-12-29T14:19:24;100203.94;;;4.29;93.76
70314;BME280;57725;47.526;18.986;2022-12-29T14:22:03;100199.63;;;4.29;93.53
70314;BME280;57725;47.526;18.986;2022-12-29T14:26:57;100194.44;;;4.29;94.13
70314;BME280;57725;47.526;18.986;2022-12-29T14:31:48;100200.44;;;4.34;92.06
70314;BME280;57725;47.526;18.986;2022-12-29T14:34:15;100210.81;;;4.31;90.37
70314;BME280;57725;47.526;18.986;2022-12-29T14:37:02;100207.44;;;4.25;89.75
70314;BME280;57725;47.526;18.986;2022-12-29T14:42:14;100207.56;;;4.14;89.13
70314;BME280;57725;47.526;18.986;2022-12-29T14:45:06;100215.34;;;4.14;88.49
70314;BME280;57725;47.526;18.986;2022-12-29T14:47:38;100217.00;;;4.18;88.93
70314;BME280;57725;47.526;18.986;2022-12-29T14:52:30;100217.84;;;4.22;88.47
70314;BME280;57725;47.526;18.986;2022-12-29T14:58:06;100201.47;;;4.18;87.99
70314;BME280;57725;47.526;18.986;2022-12-29T15:00:37;100205.84;;;4.15;88.55
70314;BME280;57725;47.526;18.986;2022-12-29T15:03:08;100205.84;;;4.15;89.12
70314;BME280;57725;47.526;18.986;2022-12-29T15:05:44;100218.81;;;4.13;90.06
70314;BME280;57725;47.526;18.986;2022-12-29T15:08:13;100230.88;;;4.13;90.44
70314;BME280;57725;47.526;18.986;2022-12-29T15:11:01;100232.63;;;4.12;91.01
70314;BME280;57725;47.526;18.986;2022-12-29T15:13:36;100234.34;;;4.12;91.16
70314;BME280;57725;47.526;18.986;2022-12-29T15:16:03;100230.88;;;4.13;90.96
70314;BME280;57725;47.526;18.986;2022-12-29T15:18:32;100227.44;;;4.12;91.23
70314;BME280;57725;47.526;18.986;2022-12-29T15:21:00;100234.31;;;4.13;91.53